Accueil
METAR-TAF:

METAR-TAF

Aéroports :

Berne, Suisse

Aéroport international de Berne

latitude: 46-55N, longitude: 007-30E, altitude: 505 m

Observation

Le bulletin a été fait il y a 25 minutes, à 21:20 UTC
Vent 1 kt de direction variable
Température 5°C
Humidité 75%
Pression 1020 hPa
Visibilité 10 km ou plus
pas de nuages en-dessous de 1500 mètres et pas de cumulonimbus.

METAR: LSZB 232120Z AUTO VRB01KT CAVOK 05/01 Q1020

Heure: 23:45 (21:45 UTC)

Prévision

Le bulletin a été fait il y a 7 heures et 20 minutes, à 14:25 UTC
Prévision valable du 23 à 15 UTC au 23 à 24 UTC
Vent 8 kt de nord-ouest
Visibilité 10 km ou plus
pas de nuages en-dessous de 1500 mètres et pas de cumulonimbus.
Evoluant progressivement
du 23 à 17 UTC au 23 à 19 UTC
Vent 3 kt de direction variable

TAF: LSZB 231425Z 2315/2324 31008KT CAVOK BECMG 2317/2319 VRB03KT

Observations et prévisions météorologiques de plus de 4000 aéroports (messages METAR et TAF).

Les stations disponibles sont représentées par des disques jaunes et rouges sur la carte.

Passer la souris dessus pour voir le nom de la station.

Cliquer dessus pour voir les observations et prévisions météorologiques.

Pour changer de carte: cliquez sur les boutons verts avec une croix noire pour zoomer, sur le bouton vert avec un tiret pour effectuer un zoom arrière, ou sur les flèches vertes pour les cartes adjacentes.


METAR-TAF: